sensor_id;sensor_type;location;lat;lon;timestamp;pressure;altitude;pressure_sealevel;temperature;humidity
39773;BME280;25451;51.960;6.250;2022-10-16T00:01:13;100856.84;;;13.17;79.27
39773;BME280;25451;51.960;6.250;2022-10-16T00:03:39;100852.69;;;13.15;78.81
39773;BME280;25451;51.960;6.250;2022-10-16T00:06:06;100872.13;;;13.20;79.02
39773;BME280;25451;51.960;6.250;2022-10-16T00:08:32;100869.63;;;13.18;79.04
39773;BME280;25451;51.960;6.250;2022-10-16T00:11:03;100864.56;;;13.15;79.16
39773;BME280;25451;51.960;6.250;2022-10-16T00:13:31;100866.78;;;13.13;79.40
39773;BME280;25451;51.960;6.250;2022-10-16T00:15:57;100867.13;;;13.17;79.27
39773;BME280;25451;51.960;6.250;2022-10-16T00:18:24;100852.78;;;13.03;78.83
39773;BME280;25451;51.960;6.250;2022-10-16T00:20:49;100869.81;;;13.12;79.21
39773;BME280;25451;51.960;6.250;2022-10-16T00:23:15;100872.09;;;13.15;78.90
39773;BME280;25451;51.960;6.250;2022-10-16T00:25:40;100868.41;;;13.09;79.04
39773;BME280;25451;51.960;6.250;2022-10-16T00:28:05;100864.28;;;13.12;79.09
39773;BME280;25451;51.960;6.250;2022-10-16T00:30:30;100868.16;;;13.11;79.20
39773;BME280;25451;51.960;6.250;2022-10-16T00:32:56;100865.13;;;13.12;79.34
39773;BME280;25451;51.960;6.250;2022-10-16T00:35:21;100853.66;;;13.04;79.24
39773;BME280;25451;51.960;6.250;2022-10-16T00:37:47;100870.94;;;13.11;79.34
39773;BME280;25451;51.960;6.250;2022-10-16T00:40:12;100845.28;;;12.99;79.07
39773;BME280;25451;51.960;6.250;2022-10-16T00:42:37;100855.91;;;13.07;79.26
39773;BME280;25451;51.960;6.250;2022-10-16T00:45:03;100844.16;;;13.00;79.02
39773;BME280;25451;51.960;6.250;2022-10-16T00:47:34;100860.09;;;13.09;79.31
39773;BME280;25451;51.960;6.250;2022-10-16T00:50:16;100872.28;;;13.08;78.97
39773;BME280;25451;51.960;6.250;2022-10-16T00:52:45;100868.66;;;13.08;79.06
39773;BME280;25451;51.960;6.250;2022-10-16T00:55:11;100870.00;;;13.05;79.30
39773;BME280;25451;51.960;6.250;2022-10-16T00:57:38;100861.97;;;13.04;79.19
39773;BME280;25451;51.960;6.250;2022-10-16T01:00:06;100857.50;;;13.03;78.96
39773;BME280;25451;51.960;6.250;2022-10-16T01:02:32;100859.44;;;13.02;79.37
39773;BME280;25451;51.960;6.250;2022-10-16T01:04:57;100853.88;;;13.02;79.49
39773;BME280;25451;51.960;6.250;2022-10-16T01:07:45;100857.84;;;13.06;79.17
39773;BME280;25451;51.960;6.250;2022-10-16T01:12:58;100864.47;;;13.05;79.49
39773;BME280;25451;51.960;6.250;2022-10-16T01:15:34;100862.19;;;13.02;79.08
39773;BME280;25451;51.960;6.250;2022-10-16T01:20:58;100868.34;;;13.04;79.16
39773;BME280;25451;51.960;6.250;2022-10-16T01:28:32;100864.13;;;13.02;79.46
39773;BME280;25451;51.960;6.250;2022-10-16T01:31:00;100854.97;;;13.01;79.24
39773;BME280;25451;51.960;6.250;2022-10-16T01:33:58;100859.44;;;13.02;79.50
39773;BME280;25451;51.960;6.250;2022-10-16T01:36:31;100865.81;;;13.03;79.34
39773;BME280;25451;51.960;6.250;2022-10-16T01:39:01;100861.63;;;13.00;79.23
39773;BME280;25451;51.960;6.250;2022-10-16T01:41:38;100860.28;;;13.03;79.39
39773;BME280;25451;51.960;6.250;2022-10-16T01:44:09;100861.09;;;13.03;79.39
39773;BME280;25451;51.960;6.250;2022-10-16T01:46:39;100852.19;;;13.01;79.53
39773;BME280;25451;51.960;6.250;2022-10-16T01:49:07;100858.59;;;13.02;79.63
39773;BME280;25451;51.960;6.250;2022-10-16T01:51:34;100850.53;;;13.00;79.53
39773;BME280;25451;51.960;6.250;2022-10-16T01:54:01;100843.31;;;12.99;79.60
39773;BME280;25451;51.960;6.250;2022-10-16T01:56:28;100848.28;;;12.97;79.41
39773;BME280;25451;51.960;6.250;2022-10-16T01:58:58;100855.25;;;13.00;79.24
39773;BME280;25451;51.960;6.250;2022-10-16T02:01:26;100854.97;;;13.01;79.48
39773;BME280;25451;51.960;6.250;2022-10-16T02:03:57;100854.38;;;12.99;79.66
39773;BME280;25451;51.960;6.250;2022-10-16T02:06:24;100868.81;;;13.01;79.72
39773;BME280;25451;51.960;6.250;2022-10-16T02:08:50;100865.75;;;12.98;79.62
39773;BME280;25451;51.960;6.250;2022-10-16T02:11:15;100864.75;;;13.04;79.48
39773;BME280;25451;51.960;6.250;2022-10-16T02:13:46;100862.53;;;13.06;79.33
39773;BME280;25451;51.960;6.250;2022-10-16T02:16:13;100855.53;;;13.03;79.43
39773;BME280;25451;51.960;6.250;2022-10-16T02:18:40;100871.69;;;13.06;79.82
39773;BME280;25451;51.960;6.250;2022-10-16T02:21:26;100868.81;;;13.01;79.43
39773;BME280;25451;51.960;6.250;2022-10-16T02:24:03;100882.50;;;13.08;79.74
39773;BME280;25451;51.960;6.250;2022-10-16T02:26:42;100887.78;;;13.09;79.76
39773;BME280;25451;51.960;6.250;2022-10-16T02:29:12;100886.72;;;13.10;79.44
39773;BME280;25451;51.960;6.250;2022-10-16T02:31:42;100881.94;;;13.06;79.49
39773;BME280;25451;51.960;6.250;2022-10-16T02:34:10;100896.09;;;13.09;79.75
39773;BME280;25451;51.960;6.250;2022-10-16T02:36:38;100884.44;;;13.07;79.58
39773;BME280;25451;51.960;6.250;2022-10-16T02:39:04;100886.72;;;13.10;79.52
39773;BME280;25451;51.960;6.250;2022-10-16T02:41:31;100876.47;;;13.11;79.75
39773;BME280;25451;51.960;6.250;2022-10-16T02:43:56;100880.41;;;13.15;79.60
39773;BME280;25451;51.960;6.250;2022-10-16T02:46:22;100874.84;;;13.15;79.89
39773;BME280;25451;51.960;6.250;2022-10-16T02:48:47;100874.59;;;13.16;79.71
39773;BME280;25451;51.960;6.250;2022-10-16T02:51:12;100862.91;;;13.14;79.75
39773;BME280;25451;51.960;6.250;2022-10-16T02:53:38;100864.91;;;13.19;79.98
39773;BME280;25451;51.960;6.250;2022-10-16T02:56:03;100867.94;;;13.17;79.59
39773;BME280;25451;51.960;6.250;2022-10-16T02:58:29;100857.41;;;13.19;80.06
39773;BME280;25451;51.960;6.250;2022-10-16T03:00:55;100870.47;;;13.19;79.76
39773;BME280;25451;51.960;6.250;2022-10-16T03:03:20;100870.47;;;13.19;79.72
39773;BME280;25451;51.960;6.250;2022-10-16T03:05:45;100864.06;;;13.18;79.76
39773;BME280;25451;51.960;6.250;2022-10-16T03:08:11;100858.53;;;13.18;79.75
39773;BME280;25451;51.960;6.250;2022-10-16T03:10:36;100865.22;;;13.22;79.77
39773;BME280;25451;51.960;6.250;2022-10-16T03:13:02;100860.75;;;13.21;79.93
39773;BME280;25451;51.960;6.250;2022-10-16T03:15:27;100860.19;;;13.19;79.77
39773;BME280;25451;51.960;6.250;2022-10-16T03:17:54;100869.06;;;13.21;79.96
39773;BME280;25451;51.960;6.250;2022-10-16T03:20:19;100865.81;;;13.24;80.07
39773;BME280;25451;51.960;6.250;2022-10-16T03:22:44;100877.72;;;13.25;79.92
39773;BME280;25451;51.960;6.250;2022-10-16T03:25:10;100880.50;;;13.25;79.92
39773;BME280;25451;51.960;6.250;2022-10-16T03:27:35;100873.28;;;13.24;80.04
39773;BME280;25451;51.960;6.250;2022-10-16T03:30:00;100883.19;;;13.20;80.23
39773;BME280;25451;51.960;6.250;2022-10-16T03:32:26;100887.66;;;13.21;80.14
39773;BME280;25451;51.960;6.250;2022-10-16T03:34:51;100902.09;;;13.23;80.07
39773;BME280;25451;51.960;6.250;2022-10-16T03:37:18;100904.03;;;13.22;80.23
39773;BME280;25451;51.960;6.250;2022-10-16T03:39:43;100880.41;;;13.15;79.74
39773;BME280;25451;51.960;6.250;2022-10-16T03:42:08;100897.63;;;13.22;80.25
39773;BME280;25451;51.960;6.250;2022-10-16T03:44:34;100890.81;;;13.08;80.22
39773;BME280;25451;51.960;6.250;2022-10-16T03:46:59;100902.59;;;13.20;80.11
39773;BME280;25451;51.960;6.250;2022-10-16T03:49:24;100915.63;;;13.19;80.26
39773;BME280;25451;51.960;6.250;2022-10-16T03:51:50;100898.88;;;13.09;80.12
39773;BME280;25451;51.960;6.250;2022-10-16T03:54:15;100896.09;;;13.09;80.13
39773;BME280;25451;51.960;6.250;2022-10-16T03:56:40;100915.03;;;13.17;80.21
39773;BME280;25451;51.960;6.250;2022-10-16T03:59:06;100905.91;;;13.17;80.23
39773;BME280;25451;51.960;6.250;2022-10-16T04:01:31;100911.47;;;13.17;80.25
39773;BME280;25451;51.960;6.250;2022-10-16T04:03:56;100903.94;;;13.17;80.28
39773;BME280;25451;51.960;6.250;2022-10-16T04:06:21;100906.16;;;13.15;80.24
39773;BME280;25451;51.960;6.250;2022-10-16T04:08:47;100898.94;;;13.14;80.04
39773;BME280;25451;51.960;6.250;2022-10-16T04:11:12;100910.63;;;13.16;80.18
39773;BME280;25451;51.960;6.250;2022-10-16T04:13:38;100917.00;;;13.17;80.38
39773;BME280;25451;51.960;6.250;2022-10-16T04:16:03;100922.78;;;13.15;80.27
39773;BME280;25451;51.960;6.250;2022-10-16T04:18:28;100920.00;;;13.15;80.30
39773;BME280;25451;51.960;6.250;2022-10-16T04:20:54;100920.81;;;13.11;80.01
39773;BME280;25451;51.960;6.250;2022-10-16T04:23:19;100927.75;;;13.13;80.41
39773;BME280;25451;51.960;6.250;2022-10-16T04:25:45;100939.41;;;13.15;80.40
39773;BME280;25451;51.960;6.250;2022-10-16T04:28:10;100939.38;;;13.10;80.35
39773;BME280;25451;51.960;6.250;2022-10-16T04:30:37;100937.44;;;13.11;80.53
39773;BME280;25451;51.960;6.250;2022-10-16T04:33:03;100933.50;;;13.07;80.21
39773;BME280;25451;51.960;6.250;2022-10-16T04:35:28;100941.38;;;13.15;80.30
39773;BME280;25451;51.960;6.250;2022-10-16T04:37:53;100948.00;;;13.14;80.34
39773;BME280;25451;51.960;6.250;2022-10-16T04:40:19;100939.63;;;13.09;80.25
39773;BME280;25451;51.960;6.250;2022-10-16T04:42:44;100947.16;;;13.13;80.12
39773;BME280;25451;51.960;6.250;2022-10-16T04:45:09;100949.91;;;13.13;79.87
39773;BME280;25451;51.960;6.250;2022-10-16T04:47:35;100948.84;;;13.14;80.48
39773;BME280;25451;51.960;6.250;2022-10-16T04:50:00;100945.22;;;13.14;80.08
39773;BME280;25451;51.960;6.250;2022-10-16T04:52:27;100953.81;;;13.12;80.13
39773;BME280;25451;51.960;6.250;2022-10-16T04:54:52;100947.09;;;13.08;80.33
39773;BME280;25451;51.960;6.250;2022-10-16T04:57:19;100958.00;;;13.15;80.25
39773;BME280;25451;51.960;6.250;2022-10-16T04:59:44;100953.81;;;13.12;80.49
39773;BME280;25451;51.960;6.250;2022-10-16T05:02:09;100960.41;;;13.11;80.37
39773;BME280;25451;51.960;6.250;2022-10-16T05:04:35;100968.72;;;13.11;80.10
39773;BME280;25451;51.960;6.250;2022-10-16T05:07:00;100968.72;;;13.11;80.07
39773;BME280;25451;51.960;6.250;2022-10-16T05:09:25;100979.81;;;13.11;80.36
39773;BME280;25451;51.960;6.250;2022-10-16T05:11:50;100975.97;;;13.12;80.17
39773;BME280;25451;51.960;6.250;2022-10-16T05:14:16;100982.84;;;13.10;80.27
39773;BME280;25451;51.960;6.250;2022-10-16T05:16:41;100985.91;;;13.08;80.51
39773;BME280;25451;51.960;6.250;2022-10-16T05:19:06;100986.41;;;13.05;80.58
39773;BME280;25451;51.960;6.250;2022-10-16T05:21:32;100995.28;;;13.07;80.24
39773;BME280;25451;51.960;6.250;2022-10-16T05:23:57;101002.78;;;13.07;80.49
39773;BME280;25451;51.960;6.250;2022-10-16T05:26:22;100999.59;;;12.98;80.78
39773;BME280;25451;51.960;6.250;2022-10-16T05:28:49;100993.78;;;13.00;80.22
39773;BME280;25451;51.960;6.250;2022-10-16T05:31:14;100995.97;;;12.98;80.25
39773;BME280;25451;51.960;6.250;2022-10-16T05:33:40;100999.59;;;12.98;80.43
39773;BME280;25451;51.960;6.250;2022-10-16T05:36:07;100999.00;;;12.96;80.10
39773;BME280;25451;51.960;6.250;2022-10-16T05:38:33;101009.81;;;12.98;80.37
39773;BME280;25451;51.960;6.250;2022-10-16T05:40:59;101007.91;;;12.98;80.33
39773;BME280;25451;51.960;6.250;2022-10-16T05:43:24;101010.00;;;12.91;80.50
39773;BME280;25451;51.960;6.250;2022-10-16T05:46:04;101026.72;;;12.96;80.24
39773;BME280;25451;51.960;6.250;2022-10-16T05:48:30;100997.69;;;12.82;80.63
39773;BME280;25451;51.960;6.250;2022-10-16T05:51:07;101027.78;;;12.95;80.35
39773;BME280;25451;51.960;6.250;2022-10-16T05:53:35;101036.09;;;12.95;80.35
39773;BME280;25451;51.960;6.250;2022-10-16T05:56:01;101031.56;;;12.89;80.18
39773;BME280;25451;51.960;6.250;2022-10-16T05:58:33;101051.56;;;12.91;80.19
39773;BME280;25451;51.960;6.250;2022-10-16T06:01:01;101046.19;;;12.85;80.58
39773;BME280;25451;51.960;6.250;2022-10-16T06:03:27;101048.72;;;12.86;80.40
39773;BME280;25451;51.960;6.250;2022-10-16T06:05:52;101059.44;;;12.83;80.52
39773;BME280;25451;51.960;6.250;2022-10-16T06:08:20;101061.72;;;12.86;80.32
39773;BME280;25451;51.960;6.250;2022-10-16T06:10:47;101064.94;;;12.78;80.31
39773;BME280;25451;51.960;6.250;2022-10-16T06:13:13;101074.72;;;12.85;80.16
39773;BME280;25451;51.960;6.250;2022-10-16T06:15:39;101076.91;;;12.83;80.27
39773;BME280;25451;51.960;6.250;2022-10-16T06:18:07;101076.34;;;12.81;80.22
39773;BME280;25451;51.960;6.250;2022-10-16T06:20:32;101069.56;;;12.72;80.17
39773;BME280;25451;51.960;6.250;2022-10-16T06:22:58;101085.22;;;12.83;80.34
39773;BME280;25451;51.960;6.250;2022-10-16T06:25:23;101085.91;;;12.74;80.04
39773;BME280;25451;51.960;6.250;2022-10-16T06:27:48;101087.09;;;12.78;80.21
39773;BME280;25451;51.960;6.250;2022-10-16T06:30:13;101093.22;;;12.80;80.36
39773;BME280;25451;51.960;6.250;2022-10-16T06:32:39;101091.28;;;12.80;80.35
39773;BME280;25451;51.960;6.250;2022-10-16T06:35:04;101103.78;;;12.83;80.07
39773;BME280;25451;51.960;6.250;2022-10-16T06:37:30;101097.31;;;12.77;80.28
39773;BME280;25451;51.960;6.250;2022-10-16T06:39:55;101099.25;;;12.77;80.05
39773;BME280;25451;51.960;6.250;2022-10-16T06:42:21;101100.94;;;12.78;80.13
39773;BME280;25451;51.960;6.250;2022-10-16T06:44:46;101100.94;;;12.78;80.14
39773;BME280;25451;51.960;6.250;2022-10-16T06:47:11;101104.63;;;12.83;80.34
39773;BME280;25451;51.960;6.250;2022-10-16T06:49:36;101091.19;;;12.75;79.89
39773;BME280;25451;51.960;6.250;2022-10-16T06:52:02;101103.19;;;12.81;80.09
39773;BME280;25451;51.960;6.250;2022-10-16T06:54:28;101112.66;;;12.85;80.05
39773;BME280;25451;51.960;6.250;2022-10-16T06:56:54;101128.53;;;12.89;80.16
39773;BME280;25451;51.960;6.250;2022-10-16T06:59:20;101136.63;;;12.91;79.97
39773;BME280;25451;51.960;6.250;2022-10-16T07:01:46;101121.41;;;12.93;80.48
39773;BME280;25451;51.960;6.250;2022-10-16T07:04:11;101138.63;;;12.95;80.19
39773;BME280;25451;51.960;6.250;2022-10-16T07:06:37;101144.84;;;13.02;80.12
39773;BME280;25451;51.960;6.250;2022-10-16T07:09:05;101148.56;;;13.08;80.05
39773;BME280;25451;51.960;6.250;2022-10-16T07:11:31;101150.56;;;13.12;80.41
39773;BME280;25451;51.960;6.250;2022-10-16T07:13:57;101153.41;;;13.17;80.28
39773;BME280;25451;51.960;6.250;2022-10-16T07:16:27;101166.25;;;13.23;80.11
39773;BME280;25451;51.960;6.250;2022-10-16T07:18:54;101168.00;;;13.29;80.18
39773;BME280;25451;51.960;6.250;2022-10-16T07:21:23;101166.16;;;13.35;80.06
39773;BME280;25451;51.960;6.250;2022-10-16T07:23:55;101173.19;;;13.43;80.28
39773;BME280;25451;51.960;6.250;2022-10-16T07:26:21;101166.00;;;13.42;80.41
39773;BME280;25451;51.960;6.250;2022-10-16T07:28:47;101173.28;;;13.48;80.06
39773;BME280;25451;51.960;6.250;2022-10-16T07:31:13;101191.75;;;13.59;80.45
39773;BME280;25451;51.960;6.250;2022-10-16T07:33:40;101192.06;;;13.62;80.38
39773;BME280;25451;51.960;6.250;2022-10-16T07:36:07;101194.66;;;13.69;80.55
39773;BME280;25451;51.960;6.250;2022-10-16T07:38:32;101200.28;;;13.74;80.28
39773;BME280;25451;51.960;6.250;2022-10-16T07:41:03;101201.94;;;13.75;80.33
39773;BME280;25451;51.960;6.250;2022-10-16T07:43:29;101211.53;;;13.84;80.29
39773;BME280;25451;51.960;6.250;2022-10-16T07:45:55;101222.94;;;13.87;80.46
39773;BME280;25451;51.960;6.250;2022-10-16T07:48:22;101229.38;;;13.93;80.51
39773;BME280;25451;51.960;6.250;2022-10-16T07:50:48;101226.38;;;13.94;80.61
39773;BME280;25451;51.960;6.250;2022-10-16T07:53:14;101231.13;;;13.99;80.37
39773;BME280;25451;51.960;6.250;2022-10-16T07:55:39;101237.34;;;14.06;80.26
39773;BME280;25451;51.960;6.250;2022-10-16T07:58:05;101231.81;;;14.06;80.32
39773;BME280;25451;51.960;6.250;2022-10-16T08:00:31;101237.16;;;14.12;80.75
39773;BME280;25451;51.960;6.250;2022-10-16T08:02:57;101231.25;;;14.09;80.56
39773;BME280;25451;51.960;6.250;2022-10-16T08:05:26;101218.22;;;14.09;80.70
39773;BME280;25451;51.960;6.250;2022-10-16T08:07:52;101252.09;;;14.28;80.50
39773;BME280;25451;51.960;6.250;2022-10-16T08:10:20;101264.69;;;14.36;80.39
39773;BME280;25451;51.960;6.250;2022-10-16T08:12:45;101254.72;;;14.40;80.66
39773;BME280;25451;51.960;6.250;2022-10-16T08:15:11;101265.72;;;14.51;80.29
39773;BME280;25451;51.960;6.250;2022-10-16T08:17:37;101268.88;;;14.60;80.25
39773;BME280;25451;51.960;6.250;2022-10-16T08:20:02;101259.25;;;14.67;80.16
39773;BME280;25451;51.960;6.250;2022-10-16T08:22:28;101262.63;;;14.74;80.05
39773;BME280;25451;51.960;6.250;2022-10-16T08:24:53;101266.44;;;14.90;80.05
39773;BME280;25451;51.960;6.250;2022-10-16T08:27:19;101260.34;;;14.93;79.79
39773;BME280;25451;51.960;6.250;2022-10-16T08:29:44;101266.06;;;15.08;79.77
39773;BME280;25451;51.960;6.250;2022-10-16T08:32:09;101283.41;;;15.20;79.75
39773;BME280;25451;51.960;6.250;2022-10-16T08:34:35;101272.06;;;15.27;79.58
39773;BME280;25451;51.960;6.250;2022-10-16T08:37:00;101285.78;;;15.38;79.87
39773;BME280;25451;51.960;6.250;2022-10-16T08:39:25;101288.41;;;15.50;79.42
39773;BME280;25451;51.960;6.250;2022-10-16T08:44:56;101288.06;;;15.78;79.18
39773;BME280;25451;51.960;6.250;2022-10-16T08:47:39;101288.72;;;15.90;79.08
39773;BME280;25451;51.960;6.250;2022-10-16T08:50:10;101300.75;;;16.01;79.08
39773;BME280;25451;51.960;6.250;2022-10-16T08:52:39;101305.56;;;16.15;78.98
39773;BME280;25451;51.960;6.250;2022-10-16T08:55:05;101308.97;;;16.22;78.97
39773;BME280;25451;51.960;6.250;2022-10-16T08:57:31;101302.88;;;16.30;78.90
39773;BME280;25451;51.960;6.250;2022-10-16T09:00:12;101323.00;;;16.47;78.72
39773;BME280;25451;51.960;6.250;2022-10-16T09:02:52;101306.84;;;16.44;78.76
39773;BME280;25451;51.960;6.250;2022-10-16T09:05:39;101326.47;;;16.70;78.81
39773;BME280;25451;51.960;6.250;2022-10-16T09:11:00;101329.91;;;16.87;78.58
39773;BME280;25451;51.960;6.250;2022-10-16T09:13:50;101339.69;;;16.99;78.41
39773;BME280;25451;51.960;6.250;2022-10-16T09:16:23;101348.09;;;17.09;78.42
39773;BME280;25451;51.960;6.250;2022-10-16T09:21:29;101340.34;;;17.26;78.64
39773;BME280;25451;51.960;6.250;2022-10-16T09:24:00;101343.97;;;17.32;78.63
39773;BME280;25451;51.960;6.250;2022-10-16T09:26:32;101347.31;;;17.39;78.39
39773;BME280;25451;51.960;6.250;2022-10-16T09:28:57;101350.13;;;17.49;78.38
39773;BME280;25451;51.960;6.250;2022-10-16T09:31:22;101353.53;;;17.61;78.42
39773;BME280;25451;51.960;6.250;2022-10-16T09:33:53;101362.16;;;17.80;77.89
39773;BME280;25451;51.960;6.250;2022-10-16T09:36:20;101352.94;;;17.94;77.55
39773;BME280;25451;51.960;6.250;2022-10-16T09:38:46;101359.06;;;18.06;77.13
39773;BME280;25451;51.960;6.250;2022-10-16T09:41:22;101354.00;;;18.18;76.55
39773;BME280;25451;51.960;6.250;2022-10-16T09:43:55;101367.38;;;18.37;76.64
39773;BME280;25451;51.960;6.250;2022-10-16T09:48:51;101378.28;;;18.58;76.29
39773;BME280;25451;51.960;6.250;2022-10-16T09:51:22;101372.94;;;18.62;76.26
39773;BME280;25451;51.960;6.250;2022-10-16T09:53:54;101363.72;;;18.66;76.35
39773;BME280;25451;51.960;6.250;2022-10-16T09:56:31;101390.25;;;18.79;76.30
39773;BME280;25451;51.960;6.250;2022-10-16T09:59:12;101390.75;;;18.86;75.87
39773;BME280;25451;51.960;6.250;2022-10-16T10:01:40;101384.84;;;18.92;75.85
39773;BME280;25451;51.960;6.250;2022-10-16T10:04:07;101388.44;;;19.03;76.03
39773;BME280;25451;51.960;6.250;2022-10-16T10:06:34;101390.66;;;19.11;76.04
39773;BME280;25451;51.960;6.250;2022-10-16T10:09:24;101392.59;;;19.16;75.78
39773;BME280;25451;51.960;6.250;2022-10-16T10:12:03;101396.13;;;19.31;75.53
39773;BME280;25451;51.960;6.250;2022-10-16T10:14:43;101389.41;;;19.37;75.40
39773;BME280;25451;51.960;6.250;2022-10-16T10:19:38;101406.44;;;19.46;75.34
39773;BME280;25451;51.960;6.250;2022-10-16T10:28:17;101401.78;;;19.70;75.00
39773;BME280;25451;51.960;6.250;2022-10-16T10:31:21;101402.31;;;19.77;74.96
39773;BME280;25451;51.960;6.250;2022-10-16T10:36:35;101404.19;;;19.87;74.24
39773;BME280;25451;51.960;6.250;2022-10-16T10:39:27;101402.97;;;19.98;74.43
39773;BME280;25451;51.960;6.250;2022-10-16T10:42:15;101402.31;;;20.06;74.62
39773;BME280;25451;51.960;6.250;2022-10-16T10:45:01;101409.84;;;20.15;74.88
39773;BME280;25451;51.960;6.250;2022-10-16T10:47:50;101408.34;;;20.28;74.92
39773;BME280;25451;51.960;6.250;2022-10-16T10:50:25;101406.31;;;20.33;74.78
39773;BME280;25451;51.960;6.250;2022-10-16T11:00:51;101432.97;;;20.59;74.25
39773;BME280;25451;51.960;6.250;2022-10-16T11:06:20;101410.22;;;20.61;74.11
39773;BME280;25451;51.960;6.250;2022-10-16T11:08:57;101423.59;;;20.69;73.71
39773;BME280;25451;51.960;6.250;2022-10-16T11:11:32;101429.16;;;20.74;73.51
39773;BME280;25451;51.960;6.250;2022-10-16T11:14:04;101421.34;;;20.71;73.37
39773;BME280;25451;51.960;6.250;2022-10-16T11:16:43;101435.31;;;20.76;72.78
39773;BME280;25451;51.960;6.250;2022-10-16T11:19:47;101432.81;;;20.75;72.59
39773;BME280;25451;51.960;6.250;2022-10-16T11:22:22;101439.25;;;20.75;72.52
39773;BME280;25451;51.960;6.250;2022-10-16T11:30:39;101451.81;;;20.83;72.23
39773;BME280;25451;51.960;6.250;2022-10-16T11:39:01;101451.03;;;21.01;71.18
39773;BME280;25451;51.960;6.250;2022-10-16T11:49:44;101448.03;;;20.92;69.66
39773;BME280;25451;51.960;6.250;2022-10-16T11:52:23;101434.13;;;20.82;69.35
39773;BME280;25451;51.960;6.250;2022-10-16T11:57:34;101452.72;;;20.73;69.08
39773;BME280;25451;51.960;6.250;2022-10-16T12:08:20;101457.56;;;20.39;68.23
39773;BME280;25451;51.960;6.250;2022-10-16T12:10:47;101460.13;;;20.35;68.13
39773;BME280;25451;51.960;6.250;2022-10-16T12:13:33;101455.41;;;20.31;68.19
39773;BME280;25451;51.960;6.250;2022-10-16T12:18:40;101452.13;;;20.19;67.97
39773;BME280;25451;51.960;6.250;2022-10-16T12:21:06;101456.34;;;20.16;68.13
39773;BME280;25451;51.960;6.250;2022-10-16T12:23:36;101455.25;;;20.12;68.04
39773;BME280;25451;51.960;6.250;2022-10-16T12:26:03;101474.56;;;20.14;67.93
39773;BME280;25451;51.960;6.250;2022-10-16T12:28:31;101459.22;;;20.06;67.83
39773;BME280;25451;51.960;6.250;2022-10-16T12:31:03;101462.31;;;20.05;67.65
39773;BME280;25451;51.960;6.250;2022-10-16T12:33:32;101466.31;;;19.99;67.53
39773;BME280;25451;51.960;6.250;2022-10-16T12:36:01;101479.78;;;19.97;67.61
39773;BME280;25451;51.960;6.250;2022-10-16T12:38:51;101472.53;;;19.91;67.35
39773;BME280;25451;51.960;6.250;2022-10-16T12:41:28;101480.69;;;19.87;67.31
39773;BME280;25451;51.960;6.250;2022-10-16T12:43:54;101472.06;;;19.78;67.23
39773;BME280;25451;51.960;6.250;2022-10-16T12:46:22;101483.25;;;19.78;67.14
39773;BME280;25451;51.960;6.250;2022-10-16T12:48:47;101489.72;;;19.74;67.22
39773;BME280;25451;51.960;6.250;2022-10-16T12:53:58;101487.22;;;19.67;66.84
39773;BME280;25451;51.960;6.250;2022-10-16T12:56:32;101487.81;;;19.64;66.77
39773;BME280;25451;51.960;6.250;2022-10-16T12:59:09;101477.50;;;19.55;66.75
39773;BME280;25451;51.960;6.250;2022-10-16T13:01:48;101486.75;;;19.55;66.41
39773;BME280;25451;51.960;6.250;2022-10-16T13:17:42;101487.13;;;19.29;66.53
39773;BME280;25451;51.960;6.250;2022-10-16T13:20:34;101472.88;;;19.20;66.68
39773;BME280;25451;51.960;6.250;2022-10-16T13:28:05;101469.84;;;19.12;66.40
39773;BME280;25451;51.960;6.250;2022-10-16T13:30:40;101488.59;;;19.11;66.41
39773;BME280;25451;51.960;6.250;2022-10-16T13:33:13;101479.94;;;19.02;66.38
39773;BME280;25451;51.960;6.250;2022-10-16T13:35:53;101478.53;;;19.05;66.54
39773;BME280;25451;51.960;6.250;2022-10-16T13:38:22;101485.25;;;19.04;66.63
39773;BME280;25451;51.960;6.250;2022-10-16T13:40:54;101484.69;;;19.02;66.72
39773;BME280;25451;51.960;6.250;2022-10-16T13:43:27;101489.75;;;19.00;66.48
39773;BME280;25451;51.960;6.250;2022-10-16T13:46:03;101491.44;;;18.96;66.59
39773;BME280;25451;51.960;6.250;2022-10-16T13:48:30;101493.69;;;18.94;66.42
39773;BME280;25451;51.960;6.250;2022-10-16T13:51:17;101494.25;;;18.91;66.65
39773;BME280;25451;51.960;6.250;2022-10-16T13:53:44;101498.75;;;18.87;66.51
39773;BME280;25451;51.960;6.250;2022-10-16T13:56:19;101483.34;;;18.84;66.59
39773;BME280;25451;51.960;6.250;2022-10-16T13:58:45;101485.59;;;18.77;66.43
39773;BME280;25451;51.960;6.250;2022-10-16T14:03:42;101510.50;;;18.79;66.43
39773;BME280;25451;51.960;6.250;2022-10-16T14:06:13;101488.72;;;18.71;66.41
39773;BME280;25451;51.960;6.250;2022-10-16T14:08:43;101494.31;;;18.71;66.44
39773;BME280;25451;51.960;6.250;2022-10-16T14:11:10;101509.66;;;18.73;66.40
39773;BME280;25451;51.960;6.250;2022-10-16T14:13:45;101503.50;;;18.71;66.28
39773;BME280;25451;51.960;6.250;2022-10-16T14:16:16;101502.97;;;18.69;66.19
39773;BME280;25451;51.960;6.250;2022-10-16T14:18:46;101513.03;;;18.65;66.37
39773;BME280;25451;51.960;6.250;2022-10-16T14:21:14;101512.75;;;18.62;66.50
39773;BME280;25451;51.960;6.250;2022-10-16T14:23:42;101506.06;;;18.58;66.38
39773;BME280;25451;51.960;6.250;2022-10-16T14:28:39;101515.88;;;18.50;66.35
39773;BME280;25451;51.960;6.250;2022-10-16T14:31:30;101523.13;;;18.51;66.44
39773;BME280;25451;51.960;6.250;2022-10-16T14:33:57;101523.41;;;18.50;66.36
39773;BME280;25451;51.960;6.250;2022-10-16T14:36:23;101523.13;;;18.46;66.54
39773;BME280;25451;51.960;6.250;2022-10-16T14:39:02;101511.38;;;18.44;66.55
39773;BME280;25451;51.960;6.250;2022-10-16T14:41:32;101525.59;;;18.43;66.77
39773;BME280;25451;51.960;6.250;2022-10-16T14:44:03;101527.00;;;18.40;66.68